Time;durP1;ratioP1;P1;durP2;ratioP2;P2;SDS_P1;SDS_P2;PMS_P1;PMS_P2;Temp;Humidity;BMP_temperature;BMP_pressure;BME280_temperature;BME280_humidity;BME280_pressure;Samples;Min_cycle;Max_cycle;Signal;HPM_P1;HPM_P2
2021/11/09 00:01:58;;;;;;;23.40;4.60;;;;;;;7.15;83.92;101125.73;103043;1312;22574;-63
2021/11/09 00:04:34;;;;;;;20.00;3.40;;;;;;;7.14;83.98;101125.59;103219;1314;25224;-63
2021/11/09 00:07:11;;;;;;;19.40;3.80;;;;;;;7.12;84.09;101124.84;103071;1314;22558;-63
2021/11/09 00:12:33;;;;;;;14.40;3.00;;;;;;;7.07;84.31;101124.88;103065;1310;24224;-63
2021/11/09 00:15:08;;;;;;;17.60;3.60;;;;;;;7.06;84.36;101127.06;103255;1312;22610;-63
2021/11/09 00:17:39;;;;;;;16.90;4.00;;;;;;;7.04;84.47;101123.86;103025;1313;22649;-63
2021/11/09 00:20:13;;;;;;;12.70;3.10;;;;;;;7.02;84.55;101125.09;103040;1314;22762;-63
2021/11/09 00:22:44;;;;;;;19.50;3.50;;;;;;;7.01;84.61;101128.05;103126;1316;22754;-63
2021/11/09 00:25:16;;;;;;;16.20;3.30;;;;;;;7.00;84.67;101133.94;103132;1312;296224;-63
2021/11/09 00:27:48;;;;;;;19.30;3.70;;;;;;;6.99;84.75;101140.95;103226;1313;22651;-63
2021/11/09 00:30:25;;;;;;;16.40;4.20;;;;;;;6.98;84.85;101140.09;102985;1313;22609;-63
2021/11/09 00:32:57;;;;;;;20.00;4.20;;;;;;;6.98;84.88;101144.63;103078;1313;22596;-63
2021/11/09 00:35:30;;;;;;;20.40;4.60;;;;;;;6.97;84.86;101143.67;103073;1315;25409;-63
2021/11/09 00:38:05;;;;;;;18.80;4.50;;;;;;;6.98;84.93;101150.58;103161;1315;23060;-63
2021/11/09 00:40:39;;;;;;;15.70;3.10;;;;;;;6.97;85.05;101149.17;103221;1317;22707;-63
2021/11/09 00:43:12;;;;;;;24.90;4.90;;;;;;;6.97;85.02;101151.87;103083;1314;24247;-63
2021/11/09 00:45:44;;;;;;;16.00;3.90;;;;;;;6.95;85.11;101150.15;103317;1313;26615;-63
2021/11/09 00:48:16;;;;;;;23.10;4.80;;;;;;;6.95;85.24;101149.13;103235;1312;22571;-63
2021/11/09 00:50:49;;;;;;;17.50;4.00;;;;;;;6.95;85.30;101149.45;103114;1312;22664;-63
2021/11/09 00:53:21;;;;;;;18.90;4.50;;;;;;;6.94;85.40;101156.14;103093;1310;25208;-63
2021/11/09 00:55:53;;;;;;;17.60;3.80;;;;;;;6.94;85.42;101153.93;103320;1314;23111;-63
2021/11/09 00:58:24;;;;;;;22.10;4.10;;;;;;;6.93;85.56;101155.98;103300;1312;26189;-63
2021/11/09 01:00:55;;;;;;;18.50;4.70;;;;;;;6.91;85.73;101159.70;103031;1310;22674;-63
2021/11/09 01:03:26;;;;;;;20.10;3.50;;;;;;;6.90;85.81;101161.88;102895;1313;23068;-63
2021/11/09 01:05:57;;;;;;;21.90;4.70;;;;;;;6.88;85.83;101161.44;103103;1313;25283;-63
2021/11/09 01:08:28;;;;;;;24.10;5.00;;;;;;;6.86;85.83;101163.70;103030;1312;22628;-64
2021/11/09 01:10:59;;;;;;;18.10;4.80;;;;;;;6.86;85.87;101163.86;103088;1316;22574;-64
2021/11/09 01:13:31;;;;;;;14.70;5.00;;;;;;;6.86;85.97;101172.27;103220;1310;22901;-63
2021/11/09 01:16:02;;;;;;;23.20;5.70;;;;;;;6.85;85.98;101174.62;103078;1315;25396;-64
2021/11/09 01:18:37;;;;;;;17.90;4.30;;;;;;;6.85;86.12;101179.02;103114;1312;22788;-63
2021/11/09 01:21:12;;;;;;;19.60;4.30;;;;;;;6.84;86.20;101183.73;103151;1312;23159;-63
2021/11/09 01:23:44;;;;;;;17.80;4.40;;;;;;;6.84;86.28;101183.58;103047;1312;22649;-63
2021/11/09 01:26:16;;;;;;;20.70;4.80;;;;;;;6.84;86.38;101182.94;103179;1312;22563;-63
2021/11/09 01:28:49;;;;;;;20.40;4.10;;;;;;;6.83;86.51;101186.23;103283;1313;22710;-62
2021/11/09 01:31:21;;;;;;;22.70;6.00;;;;;;;6.82;86.60;101186.33;103288;1313;22718;-61
2021/11/09 01:33:53;;;;;;;19.60;4.00;;;;;;;6.81;86.66;101187.83;103242;1314;24291;-60
2021/11/09 01:36:24;;;;;;;23.10;4.70;;;;;;;6.82;86.70;101187.44;103121;1314;25418;-61
2021/11/09 01:38:55;;;;;;;24.30;6.00;;;;;;;6.81;86.73;101188.80;103139;1310;25441;-61
2021/11/09 01:41:27;;;;;;;18.40;3.60;;;;;;;6.81;86.86;101188.09;103079;1314;22578;-60
2021/11/09 01:43:58;;;;;;;22.50;5.10;;;;;;;6.80;86.88;101187.16;103160;1310;23756;-62
2021/11/09 01:46:30;;;;;;;22.10;5.00;;;;;;;6.78;87.01;101190.53;103028;1313;22675;-61
2021/11/09 01:49:02;;;;;;;25.10;5.30;;;;;;;6.77;87.14;101195.16;103009;1312;25405;-62
2021/11/09 01:51:33;;;;;;;18.00;4.20;;;;;;;6.75;87.18;101199.87;103039;1314;25290;-61
2021/11/09 01:54:05;;;;;;;17.90;4.70;;;;;;;6.74;87.24;101196.25;103150;1313;25406;-62
2021/11/09 01:56:38;;;;;;;16.40;4.30;;;;;;;6.74;87.32;101198.23;103022;1312;25399;-62
2021/11/09 01:59:09;;;;;;;28.00;5.20;;;;;;;6.72;87.46;101207.09;103129;1315;22593;-62
2021/11/09 02:01:39;;;;;;;19.00;4.60;;;;;;;6.72;87.42;101206.21;103034;1312;25319;-62
2021/11/09 02:04:11;;;;;;;19.90;4.00;;;;;;;6.71;87.54;101203.23;102989;1312;24006;-62
2021/11/09 02:06:42;;;;;;;17.70;4.40;;;;;;;6.70;87.54;101205.22;103026;1312;22628;-62
2021/11/09 02:09:15;;;;;;;22.50;4.60;;;;;;;6.69;87.63;101203.57;103104;1313;24157;-62
2021/11/09 02:11:49;;;;;;;21.90;5.60;;;;;;;6.69;87.69;101207.77;103096;1312;22577;-61
2021/11/09 02:14:19;;;;;;;20.00;4.60;;;;;;;6.68;87.65;101206.84;102984;1314;22564;-61
2021/11/09 02:16:53;;;;;;;18.10;5.00;;;;;;;6.68;87.81;101209.63;103004;1313;23124;-61
2021/11/09 02:19:29;;;;;;;22.00;4.90;;;;;;;6.68;87.82;101209.71;103054;1312;22573;-61
2021/11/09 02:22:00;;;;;;;23.60;5.30;;;;;;;6.67;87.86;101212.80;103249;1312;22574;-60
2021/11/09 02:24:31;;;;;;;19.50;5.10;;;;;;;6.67;87.95;101211.14;103159;1312;25387;-60
2021/11/09 02:27:02;;;;;;;16.90;4.00;;;;;;;6.67;88.03;101210.04;102960;1312;25322;-61
2021/11/09 02:29:34;;;;;;;20.60;4.20;;;;;;;6.66;88.08;101216.01;103070;1312;25329;-61
2021/11/09 02:32:06;;;;;;;17.40;4.80;;;;;;;6.65;88.16;101216.98;103068;1313;25338;-61
2021/11/09 02:34:37;;;;;;;20.10;5.00;;;;;;;6.65;88.17;101214.75;103198;1313;22597;-60
2021/11/09 02:37:08;;;;;;;19.20;4.60;;;;;;;6.65;88.23;101217.70;102942;1312;22571;-61
2021/11/09 02:39:39;;;;;;;20.80;5.60;;;;;;;6.64;88.35;101222.32;103003;1313;22619;-62
2021/11/09 02:42:14;;;;;;;20.50;4.30;;;;;;;6.64;88.34;101223.83;102945;1312;22581;-61
2021/11/09 02:44:54;;;;;;;20.60;4.50;;;;;;;6.64;88.43;101226.91;103101;1310;22574;-62
2021/11/09 02:47:29;;;;;;;16.10;4.50;;;;;;;6.64;88.38;101230.65;103005;1313;22757;-62
2021/11/09 02:50:03;;;;;;;19.80;4.10;;;;;;;6.64;88.34;101234.69;103095;1312;22557;-63
2021/11/09 02:52:36;;;;;;;18.20;4.10;;;;;;;6.64;88.44;101234.77;103133;1316;22577;-62
2021/11/09 02:55:11;;;;;;;20.30;4.90;;;;;;;6.64;88.39;101234.61;102976;1313;22590;-62
2021/11/09 02:57:47;;;;;;;20.50;5.30;;;;;;;6.64;88.40;101236.67;103049;1313;22654;-62
2021/11/09 03:00:23;;;;;;;18.50;4.40;;;;;;;6.65;88.47;101236.57;102934;1312;23151;-62
2021/11/09 03:02:58;;;;;;;17.70;4.50;;;;;;;6.65;88.46;101236.95;103105;1313;24265;-62
2021/11/09 03:05:32;;;;;;;18.50;4.40;;;;;;;6.65;88.46;101237.35;103012;1312;22659;-62
2021/11/09 03:08:13;;;;;;;20.00;5.00;;;;;;;6.65;88.44;101238.30;103201;1314;22584;-62
2021/11/09 03:10:47;;;;;;;20.20;5.80;;;;;;;6.66;88.47;101239.71;102968;1312;22570;-62
2021/11/09 03:13:18;;;;;;;21.80;4.80;;;;;;;6.67;88.54;101244.92;103021;1312;22689;-63
2021/11/09 03:15:50;;;;;;;21.90;4.20;;;;;;;6.68;88.57;101242.53;103089;1310;24375;-62
2021/11/09 03:18:24;;;;;;;20.80;5.90;;;;;;;6.68;88.56;101247.84;103063;1310;22604;-62
2021/11/09 03:23:00;;;;;;;13.70;5.20;;;;;;;6.69;88.59;101250.83;103067;1312;22815;-62
2021/11/09 03:44:12;;;;;;;20.70;6.20;;;;;;;6.70;88.86;101267.21;103269;1302;22782;-60
2021/11/09 03:46:36;;;;;;;20.80;7.00;;;;;;;6.71;88.95;101278.44;103141;1313;22574;-59
2021/11/09 03:49:10;;;;;;;27.50;6.90;;;;;;;6.73;88.99;101280.79;102983;1315;24339;-60
2021/11/09 03:51:41;;;;;;;25.90;7.00;;;;;;;6.75;89.00;101280.67;103087;1311;25358;-61
2021/11/09 03:54:14;;;;;;;28.70;6.60;;;;;;;6.75;88.95;101283.20;102988;1311;22665;-59
2021/11/09 03:56:50;;;;;;;20.90;5.70;;;;;;;6.77;88.94;101287.45;103028;1312;24258;-61
2021/11/09 03:59:27;;;;;;;21.50;6.40;;;;;;;6.77;88.99;101292.29;102924;1311;22579;-61
2021/11/09 04:02:05;;;;;;;24.00;6.20;;;;;;;6.77;89.08;101296.95;103058;1318;22846;-60
2021/11/09 04:04:42;;;;;;;20.80;7.80;;;;;;;6.77;89.00;101300.29;102898;1313;22655;-61
2021/11/09 04:07:16;;;;;;;24.30;6.60;;;;;;;6.78;89.05;101303.77;102886;1313;24239;-61
2021/11/09 04:10:02;;;;;;;25.70;5.90;;;;;;;6.79;89.07;101312.30;103066;1316;22590;-61
2021/11/09 04:12:44;;;;;;;20.00;5.70;;;;;;;6.79;89.01;101315.70;102902;1311;25458;-61
2021/11/09 04:15:28;;;;;;;24.40;6.70;;;;;;;6.79;89.01;101313.23;102953;1318;22711;-60
2021/11/09 04:21:04;;;;;;;28.90;5.80;;;;;;;6.80;89.15;101312.92;102731;1321;25351;-61
2021/11/09 04:24:17;;;;;;;19.00;4.90;;;;;;;6.80;89.01;101318.55;102497;1318;25194;-59
2021/11/09 04:27:07;;;;;;;21.00;6.00;;;;;;;6.81;89.05;101321.68;102593;1317;22659;-59
2021/11/09 05:01:30;;;;;;;19.80;5.10;;;;;;;6.93;88.88;101358.17;105467;1328;22435;-57
2021/11/09 05:09:54;;;;;;;26.90;6.80;;;;;;;6.96;88.90;101369.61;105027;1333;22741;-61
2021/11/09 05:12:25;;;;;;;23.20;6.00;;;;;;;6.96;88.83;101370.48;105256;1330;22297;-63
2021/11/09 05:14:56;;;;;;;23.90;6.40;;;;;;;6.97;88.95;101374.36;105385;1330;22430;-61
2021/11/09 05:17:27;;;;;;;23.90;6.10;;;;;;;6.97;88.89;101378.94;105340;1328;22578;-60
2021/11/09 05:19:58;;;;;;;27.90;7.00;;;;;;;6.98;89.01;101383.21;105227;1333;22439;-60
2021/11/09 05:22:29;;;;;;;34.40;8.40;;;;;;;6.97;88.98;101385.84;105359;1327;22582;-60
2021/11/09 05:24:59;;;;;;;24.60;7.00;;;;;;;6.96;89.05;101385.30;102386;1324;24258;-58
2021/11/09 05:27:31;;;;;;;27.20;7.70;;;;;;;6.96;89.04;101386.42;101930;1330;22712;-58
2021/11/09 05:30:03;;;;;;;24.60;6.90;;;;;;;6.94;89.15;101391.39;101771;1323;22634;-59
2021/11/09 05:32:35;;;;;;;23.50;7.20;;;;;;;6.93;89.22;101395.84;101974;1327;24275;-59
2021/11/09 05:35:07;;;;;;;31.10;7.90;;;;;;;6.93;89.17;101403.54;102059;1324;22732;-61
2021/11/09 05:37:42;;;;;;;26.80;8.20;;;;;;;6.93;89.15;101407.66;102452;1320;23199;-60
2021/11/09 05:40:15;;;;;;;28.40;8.10;;;;;;;6.93;89.26;101412.42;102646;1317;22650;-58
2021/11/09 05:42:47;;;;;;;28.90;8.30;;;;;;;6.92;89.24;101418.71;102380;1317;24338;-60
2021/11/09 05:45:18;;;;;;;23.00;7.30;;;;;;;6.92;89.30;101421.64;102791;1311;22577;-61
2021/11/09 05:47:49;;;;;;;29.90;8.50;;;;;;;6.93;89.25;101426.63;102904;1311;25338;-59
2021/11/09 05:50:20;;;;;;;30.60;11.40;;;;;;;6.93;89.36;101425.27;102954;1312;22514;-60
2021/11/09 05:52:51;;;;;;;30.10;10.10;;;;;;;6.93;89.35;101432.23;102867;1316;25305;-58
2021/11/09 05:55:22;;;;;;;27.40;9.00;;;;;;;6.93;89.34;101437.07;102984;1311;22669;-61
2021/11/09 05:57:53;;;;;;;25.80;9.00;;;;;;;6.93;89.35;101447.39;102932;1311;22640;-61
2021/11/09 06:00:24;;;;;;;31.90;11.00;;;;;;;6.94;89.43;101451.67;103040;1311;22610;-58
2021/11/09 06:02:55;;;;;;;31.70;8.60;;;;;;;6.94;89.41;101453.81;103041;1311;25437;-60
2021/11/09 06:05:26;;;;;;;31.60;10.00;;;;;;;6.94;89.47;101458.55;103068;1312;22681;-58
2021/11/09 06:07:57;;;;;;;32.30;9.90;;;;;;;6.94;89.51;101465.55;102961;1312;22669;-59
2021/11/09 06:10:28;;;;;;;26.50;9.60;;;;;;;6.94;89.56;101471.09;102951;1316;22696;-61
2021/11/09 06:12:59;;;;;;;39.80;11.30;;;;;;;6.93;89.50;101477.06;103062;1311;25300;-60
2021/11/09 06:15:30;;;;;;;34.40;9.10;;;;;;;6.94;89.51;101484.19;102974;1317;22693;-60
2021/11/09 06:18:01;;;;;;;31.50;10.00;;;;;;;6.95;89.56;101489.00;102942;1312;22617;-59
2021/11/09 06:20:32;;;;;;;27.70;10.70;;;;;;;6.96;89.64;101496.77;103031;1312;24336;-60
2021/11/09 06:23:03;;;;;;;40.10;10.80;;;;;;;6.96;89.65;101497.95;103103;1316;23025;-63
2021/11/09 06:25:34;;;;;;;26.90;10.40;;;;;;;6.97;89.63;101501.82;102933;1318;22617;-60
2021/11/09 06:28:06;;;;;;;35.10;12.30;;;;;;;6.98;89.66;101503.30;102937;1311;22610;-60
2021/11/09 06:30:37;;;;;;;33.50;10.80;;;;;;;7.01;89.72;101505.17;104467;1314;22603;-61
2021/11/09 06:33:08;;;;;;;38.90;12.50;;;;;;;7.04;89.76;101509.87;103042;1311;25325;-61
2021/11/09 06:35:39;;;;;;;46.10;13.00;;;;;;;7.04;89.73;101515.27;102952;1312;25474;-63
2021/11/09 06:38:11;;;;;;;34.40;11.80;;;;;;;7.03;89.75;101522.42;103409;1311;25538;-63
2021/11/09 06:40:42;;;;;;;32.20;11.50;;;;;;;7.04;89.95;101526.52;103082;1317;22584;-62
2021/11/09 06:43:13;;;;;;;38.10;13.50;;;;;;;7.03;89.91;101528.61;102903;1316;24230;-62
2021/11/09 06:45:45;;;;;;;41.90;12.90;;;;;;;7.05;89.96;101531.83;102968;1312;25394;-60
2021/11/09 06:48:18;;;;;;;35.20;11.30;;;;;;;7.06;89.92;101537.13;103107;1311;22567;-60
2021/11/09 06:50:49;;;;;;;40.30;11.70;;;;;;;7.09;90.03;101548.97;102982;1311;24241;-60
2021/11/09 06:53:19;;;;;;;34.30;10.50;;;;;;;7.09;90.07;101551.67;102821;1311;22572;-59
2021/11/09 06:55:53;;;;;;;42.50;12.20;;;;;;;7.09;90.06;101558.25;102889;1311;22692;-60
2021/11/09 06:58:26;;;;;;;35.10;10.10;;;;;;;7.10;90.02;101566.33;103453;1311;22590;-61
2021/11/09 07:00:58;;;;;;;31.80;9.90;;;;;;;7.09;90.03;101574.75;102848;1311;24332;-64
2021/11/09 07:03:30;;;;;;;27.20;8.10;;;;;;;7.08;90.06;101585.55;102837;1313;24343;-60
2021/11/09 07:06:04;;;;;;;31.60;8.90;;;;;;;7.09;90.13;101586.26;103001;1312;22563;-62
2021/11/09 07:08:35;;;;;;;31.30;9.10;;;;;;;7.11;90.15;101594.48;103885;1311;22641;-60
2021/11/09 07:11:06;;;;;;;30.00;9.20;;;;;;;7.12;90.07;101600.88;102927;1312;22623;-63
2021/11/09 07:13:37;;;;;;;29.20;9.10;;;;;;;7.14;90.06;101604.33;102887;1317;22681;-62
2021/11/09 07:16:09;;;;;;;26.60;9.40;;;;;;;7.15;89.98;101605.42;102645;1312;24229;-60
2021/11/09 07:18:40;;;;;;;31.80;9.50;;;;;;;7.16;89.99;101608.34;103003;1318;22587;-62
2021/11/09 07:21:11;;;;;;;28.40;8.90;;;;;;;7.17;90.08;101615.39;102938;1312;22641;-60
2021/11/09 07:23:41;;;;;;;29.40;7.80;;;;;;;7.19;89.97;101617.74;103101;1316;22641;-61
2021/11/09 07:26:13;;;;;;;36.50;9.80;;;;;;;7.18;89.96;101619.49;102915;1311;22567;-61
2021/11/09 07:28:45;;;;;;;25.20;8.70;;;;;;;7.20;89.97;101619.40;103110;1313;22604;-62
2021/11/09 07:31:17;;;;;;;34.00;9.10;;;;;;;7.21;89.94;101624.60;103005;1312;22666;-60
2021/11/09 07:33:50;;;;;;;28.80;9.50;;;;;;;7.22;89.86;101624.42;103111;1311;22591;-61
2021/11/09 07:36:23;;;;;;;25.30;8.90;;;;;;;7.22;90.08;101629.18;103091;1312;22567;-61
2021/11/09 07:38:56;;;;;;;25.60;8.90;;;;;;;7.23;90.13;101626.55;103060;1311;22593;-63
2021/11/09 07:41:27;;;;;;;29.70;9.20;;;;;;;7.25;90.03;101629.77;103048;1311;22741;-62
2021/11/09 07:43:58;;;;;;;32.80;8.90;;;;;;;7.28;90.02;101635.30;102928;1317;22583;-62
2021/11/09 07:46:30;;;;;;;26.30;8.80;;;;;;;7.28;89.97;101631.47;102902;1311;22667;-60
2021/11/09 07:49:00;;;;;;;31.80;10.00;;;;;;;7.30;89.96;101637.70;102901;1311;22606;-61
2021/11/09 07:51:32;;;;;;;29.40;10.30;;;;;;;7.31;89.98;101642.45;102927;1311;25487;-62
2021/11/09 07:54:04;;;;;;;27.30;9.50;;;;;;;7.34;89.97;101650.26;103044;1312;22646;-61
2021/11/09 07:56:37;;;;;;;36.40;10.50;;;;;;;7.35;90.02;101655.63;102924;1311;22680;-62
2021/11/09 07:59:25;;;;;;;27.20;9.20;;;;;;;7.38;90.09;101659.41;102934;1311;22693;-64
2021/11/09 08:02:02;;;;;;;30.10;10.60;;;;;;;7.41;90.14;101665.48;102892;1310;25433;-62
2021/11/09 08:04:42;;;;;;;29.20;10.70;;;;;;;7.42;89.88;101664.50;103195;1315;25437;-62
2021/11/09 08:07:16;;;;;;;37.20;11.00;;;;;;;7.45;89.87;101667.08;102931;1311;22648;-63
2021/11/09 08:09:47;;;;;;;35.80;10.70;;;;;;;7.48;89.97;101670.36;102960;1313;24902;-63
2021/11/09 08:12:18;;;;;;;30.30;10.30;;;;;;;7.51;89.94;101671.08;102841;1312;24337;-62
2021/11/09 08:14:49;;;;;;;30.50;10.70;;;;;;;7.54;89.95;101673.80;103133;1311;22567;-62
2021/11/09 08:17:21;;;;;;;28.90;9.90;;;;;;;7.59;90.04;101676.11;102810;1312;26654;-63
2021/11/09 08:19:52;;;;;;;30.90;8.90;;;;;;;7.62;89.86;101676.75;102871;1312;26524;-62
2021/11/09 08:22:24;;;;;;;25.90;10.10;;;;;;;7.65;89.66;101677.34;102866;1312;25458;-62
2021/11/09 08:24:54;;;;;;;39.50;12.30;;;;;;;7.68;89.59;101682.61;102908;1316;23127;-59
2021/11/09 08:27:25;;;;;;;30.20;10.10;;;;;;;7.71;89.80;101688.51;102691;1311;222019;-61
2021/11/09 08:29:58;;;;;;;28.20;8.80;;;;;;;7.75;89.67;101695.43;102846;1311;22674;-62
2021/11/09 08:32:35;;;;;;;29.70;9.50;;;;;;;7.77;89.66;101699.66;102976;1316;22577;-62
2021/11/09 08:35:07;;;;;;;26.50;9.10;;;;;;;7.80;89.39;101706.46;102982;1311;24114;-63
2021/11/09 08:37:38;;;;;;;25.00;8.80;;;;;;;7.82;89.33;101707.21;103088;1316;22641;-60
2021/11/09 08:40:15;;;;;;;30.80;11.50;;;;;;;7.83;89.40;101709.17;102610;1319;22580;-61
2021/11/09 08:42:49;;;;;;;28.20;9.10;;;;;;;7.87;89.41;101709.73;102892;1311;25381;-60
2021/11/09 08:45:27;;;;;;;22.20;8.00;;;;;;;7.92;89.36;101705.92;102800;1314;22697;-60
2021/11/09 08:48:04;;;;;;;26.80;8.80;;;;;;;7.95;89.34;101710.23;102731;1309;25349;-57
2021/11/09 08:50:35;;;;;;;24.10;8.70;;;;;;;7.98;89.05;101715.73;102753;1313;22590;-54
2021/11/09 08:53:10;;;;;;;23.00;8.30;;;;;;;8.02;89.08;101717.73;102788;1311;25295;-56
2021/11/09 08:55:55;;;;;;;24.80;8.00;;;;;;;8.05;89.01;101726.95;102812;1316;22561;-58
2021/11/09 09:04:18;;;;;;;17.80;5.50;;;;;;;8.17;88.67;101734.20;102580;1314;22589;-55
2021/11/09 09:06:53;;;;;;;18.10;6.10;;;;;;;8.21;88.29;101743.91;102742;1312;22638;-57
2021/11/09 09:09:24;;;;;;;18.90;5.30;;;;;;;8.22;88.04;101744.92;102640;1315;24146;-55
2021/11/09 09:11:56;;;;;;;24.60;7.10;;;;;;;8.25;87.84;101748.21;102606;1314;25353;-58
2021/11/09 09:14:27;;;;;;;14.00;4.00;;;;;;;8.28;87.99;101749.05;102632;1316;22577;-58
2021/11/09 09:17:01;;;;;;;14.80;4.80;;;;;;;8.30;87.58;101748.13;102645;1313;24464;-56
2021/11/09 09:19:37;;;;;;;13.10;3.50;;;;;;;8.34;87.49;101750.54;102890;1319;23987;-55
2021/11/09 09:22:10;;;;;;;11.90;2.60;;;;;;;8.37;87.25;101750.30;102613;1316;23427;-61
2021/11/09 09:24:58;;;;;;;9.80;2.40;;;;;;;8.40;87.14;101751.66;102631;1320;23004;-62
2021/11/09 09:27:38;;;;;;;13.40;3.70;;;;;;;8.42;87.14;101754.26;102688;1313;22561;-61
2021/11/09 09:30:31;;;;;;;17.20;3.90;;;;;;;8.44;87.26;101755.80;102794;1315;23024;-61
2021/11/09 09:53:01;;;;;;;14.70;3.80;;;;;;;8.68;86.38;101772.90;102850;1317;22672;-61
2021/11/09 09:55:41;;;;;;;18.20;5.10;;;;;;;8.73;86.46;101772.30;103241;1312;23498;-62
2021/11/09 09:58:13;;;;;;;18.20;4.70;;;;;;;8.76;86.35;101776.77;102805;1311;25469;-61
2021/11/09 10:00:46;;;;;;;14.90;5.00;;;;;;;8.79;86.24;101778.92;102931;1314;22560;-62
2021/11/09 10:03:17;;;;;;;17.50;5.30;;;;;;;8.84;86.18;101780.50;102915;1312;22569;-62
2021/11/09 10:05:48;;;;;;;19.00;4.80;;;;;;;8.88;86.17;101780.17;102923;1311;22680;-61
2021/11/09 10:08:21;;;;;;;14.30;4.60;;;;;;;8.92;85.89;101783.13;102864;1311;22587;-61
2021/11/09 10:10:51;;;;;;;17.90;5.40;;;;;;;8.96;85.94;101784.46;103047;1317;26563;-61
2021/11/09 10:13:23;;;;;;;13.50;4.10;;;;;;;9.01;85.72;101782.37;102820;1316;24992;-61
2021/11/09 10:15:57;;;;;;;13.70;4.20;;;;;;;9.03;85.44;101786.00;103148;1312;22578;-62
2021/11/09 10:18:28;;;;;;;15.00;5.00;;;;;;;9.06;85.60;101789.27;102602;1312;24329;-61
2021/11/09 10:21:02;;;;;;;12.00;2.90;;;;;;;9.11;85.57;101791.48;102857;1312;22597;-60
2021/11/09 10:23:34;;;;;;;11.50;2.30;;;;;;;9.13;84.77;101793.72;102914;1311;23490;-61
2021/11/09 10:26:14;;;;;;;7.50;1.70;;;;;;;9.14;84.27;101794.59;102931;1316;22644;-61
2021/11/09 10:28:46;;;;;;;10.40;2.20;;;;;;;9.16;84.41;101797.00;103029;1312;24265;-62
2021/11/09 10:31:19;;;;;;;10.50;2.40;;;;;;;9.19;84.24;101799.48;102899;1311;22587;-62
2021/11/09 10:33:51;;;;;;;11.60;2.80;;;;;;;9.20;84.07;101801.94;103025;1312;22657;-62
2021/11/09 10:36:27;;;;;;;12.60;2.50;;;;;;;9.20;83.86;101804.40;102707;1312;22596;-60
2021/11/09 10:39:16;;;;;;;11.00;2.00;;;;;;;9.18;83.63;101803.02;102895;1312;22670;-61
2021/11/09 10:42:10;;;;;;;13.70;3.10;;;;;;;9.18;83.73;101804.45;102975;1311;24227;-62
2021/11/09 10:44:42;;;;;;;10.40;2.50;;;;;;;9.20;83.61;101803.38;103133;1313;22677;-61
2021/11/09 10:47:26;;;;;;;17.10;2.90;;;;;;;9.23;83.71;101809.52;103246;1313;25444;-61
2021/11/09 10:49:59;;;;;;;8.90;2.20;;;;;;;9.29;84.03;101811.69;103316;1311;26679;-61
2021/11/09 10:52:36;;;;;;;13.70;2.90;;;;;;;9.35;84.10;101810.27;102999;1314;23315;-62
2021/11/09 10:55:13;;;;;;;9.30;2.20;;;;;;;9.42;83.99;101809.88;103063;1311;24492;-61
2021/11/09 10:57:54;;;;;;;11.90;2.30;;;;;;;9.45;83.89;101809.64;103037;1316;22792;-62
2021/11/09 11:03:50;;;;;;;14.70;2.80;;;;;;;9.57;83.70;101807.21;103082;1316;25532;-61
2021/11/09 11:06:23;;;;;;;15.70;2.40;;;;;;;9.60;83.54;101810.87;103090;1311;24112;-61
2021/11/09 11:08:56;;;;;;;11.20;2.60;;;;;;;9.64;83.30;101811.90;103081;1312;25423;-62
2021/11/09 11:11:31;;;;;;;12.90;3.00;;;;;;;9.68;83.34;101813.46;103096;1311;22561;-61
2021/11/09 11:14:13;;;;;;;13.30;2.70;;;;;;;9.69;83.06;101814.70;103350;1317;25381;-61
2021/11/09 11:16:46;;;;;;;12.00;2.60;;;;;;;9.71;82.97;101812.42;102939;1315;24345;-63
2021/11/09 11:19:19;;;;;;;10.10;2.40;;;;;;;9.74;82.92;101810.60;102974;1311;25500;-61
2021/11/09 11:21:51;;;;;;;11.00;2.60;;;;;;;9.77;82.74;101813.09;102942;1312;22664;-62
2021/11/09 11:24:22;;;;;;;17.00;4.60;;;;;;;9.77;82.27;101812.23;103002;1316;23154;-62
2021/11/09 11:26:57;;;;;;;12.50;2.80;;;;;;;9.77;82.53;101814.67;102820;1315;22583;-63
2021/11/09 11:29:32;;;;;;;12.10;2.80;;;;;;;9.82;82.68;101816.88;102937;1312;26608;-62
2021/11/09 11:32:04;;;;;;;15.50;2.40;;;;;;;9.87;82.36;101815.95;102971;1311;22616;-61
2021/11/09 11:34:34;;;;;;;12.10;2.40;;;;;;;9.87;82.06;101810.14;102989;1312;24341;-62
2021/11/09 11:37:06;;;;;;;8.30;1.80;;;;;;;9.88;82.06;101811.71;102860;1311;22560;-61
2021/11/09 11:39:39;;;;;;;10.10;2.80;;;;;;;9.91;82.24;101814.42;102946;1312;25322;-61
2021/11/09 11:42:15;;;;;;;9.00;2.00;;;;;;;9.92;81.92;101809.28;102902;1312;25399;-61
2021/11/09 11:44:57;;;;;;;9.40;2.20;;;;;;;9.95;81.90;101811.94;102946;1316;22609;-62
2021/11/09 11:47:29;;;;;;;10.30;2.10;;;;;;;9.96;81.86;101810.16;102909;1311;22624;-62
2021/11/09 11:50:06;;;;;;;8.60;2.20;;;;;;;9.98;81.80;101805.08;102926;1317;22620;-61
2021/11/09 11:52:46;;;;;;;10.70;2.40;;;;;;;10.02;82.02;101803.70;102849;1318;22605;-63
2021/11/09 11:55:26;;;;;;;9.80;2.00;;;;;;;10.05;81.79;101803.54;102877;1312;24331;-61
2021/11/09 11:58:03;;;;;;;;;;;;;;;10.07;81.86;101802.98;103094;1314;22733;-61
2021/11/09 12:00:51;;;;;;;13.10;2.40;;;;;;;10.11;81.75;101801.73;102799;1316;25455;-62
2021/11/09 12:03:38;;;;;;;15.70;3.20;;;;;;;10.17;81.91;101804.38;102976;1311;24418;-62
2021/11/09 12:06:27;;;;;;;10.70;2.80;;;;;;;10.22;81.68;101803.99;102937;1312;23290;-61
2021/11/09 12:08:58;;;;;;;13.80;3.20;;;;;;;10.25;81.33;101800.23;102885;1312;22635;-61
2021/11/09 12:11:40;;;;;;;12.60;3.10;;;;;;;10.27;80.89;101799.80;103081;1318;22558;-61
2021/11/09 12:14:13;;;;;;;13.50;3.00;;;;;;;10.29;81.08;101794.16;103178;1318;22669;-61
2021/11/09 12:17:05;;;;;;;13.40;3.80;;;;;;;10.31;80.70;101798.41;103007;1318;22634;-63
2021/11/09 12:19:59;;;;;;;15.90;4.30;;;;;;;10.32;80.77;101798.71;102941;1316;22579;-61
2021/11/09 12:22:45;;;;;;;18.20;5.90;;;;;;;10.35;80.90;101799.43;103145;1316;22669;-60
2021/11/09 12:25:41;;;;;;;18.60;6.50;;;;;;;10.36;80.84;101796.36;102774;1315;22586;-61
2021/11/09 12:28:13;;;;;;;19.40;7.90;;;;;;;10.38;80.77;101793.77;102764;1313;24306;-61
2021/11/09 12:30:47;;;;;;;19.70;8.00;;;;;;;10.40;80.82;101793.30;102939;1316;24300;-62
2021/11/09 12:33:19;;;;;;;19.60;7.50;;;;;;;10.43;80.62;101792.73;102924;1312;22639;-62
2021/11/09 12:36:12;;;;;;;20.20;6.90;;;;;;;10.44;80.18;101790.95;102814;1313;24246;-62
2021/11/09 12:38:45;;;;;;;21.00;7.00;;;;;;;10.44;80.06;101789.82;102850;1312;25426;-62
2021/11/09 12:41:18;;;;;;;21.70;7.80;;;;;;;10.45;80.16;101790.52;103033;1311;22712;-61
2021/11/09 12:43:51;;;;;;;23.00;8.30;;;;;;;10.44;79.94;101790.41;103106;1311;22748;-62
2021/11/09 12:46:29;;;;;;;19.20;7.50;;;;;;;10.40;79.68;101780.86;103029;1312;24092;-61
2021/11/09 12:49:03;;;;;;;23.50;8.90;;;;;;;10.35;79.36;101782.11;102867;1312;22567;-60
2021/11/09 12:51:36;;;;;;;22.40;8.40;;;;;;;10.29;79.34;101782.91;102910;1313;22581;-61
2021/11/09 12:54:11;;;;;;;23.50;8.10;;;;;;;10.27;79.63;101783.30;102834;1311;22603;-61
2021/11/09 12:56:45;;;;;;;22.20;7.40;;;;;;;10.24;79.76;101784.05;103027;1315;25432;-62
2021/11/09 12:59:27;;;;;;;23.80;8.30;;;;;;;10.23;79.61;101782.05;103070;1318;22684;-61
2021/11/09 13:02:08;;;;;;;18.20;7.00;;;;;;;10.23;79.62;101779.10;103056;1316;23067;-61
2021/11/09 13:04:46;;;;;;;;;;;;;;;10.20;79.62;101777.33;103197;1318;22564;-62
2021/11/09 13:07:22;;;;;;;21.00;6.10;;;;;;;10.19;79.67;101776.97;102839;1312;22557;-62
2021/11/09 13:09:59;;;;;;;17.20;6.80;;;;;;;10.18;79.73;101773.41;102918;1312;22679;-61
2021/11/09 13:12:32;;;;;;;20.10;7.60;;;;;;;10.16;79.65;101769.39;103090;1310;25273;-62
2021/11/09 13:15:06;;;;;;;22.00;6.70;;;;;;;10.15;79.45;101767.60;103001;1311;24228;-62
2021/11/09 13:17:43;;;;;;;18.70;7.10;;;;;;;10.13;79.39;101774.50;103480;1316;25250;-62
2021/11/09 13:20:19;;;;;;;16.70;5.40;;;;;;;10.13;79.43;101770.83;103077;1316;22605;-63
2021/11/09 13:22:59;;;;;;;22.70;6.40;;;;;;;10.17;79.59;101771.68;103146;1312;22697;-63